sensor_id;sensor_type;location;lat;lon;timestamp;pressure;altitude;pressure_sealevel;temperature;humidity
5284;BME280;15377;48.540;9.268;2022-12-18T00:01:32;98527.88;;;-9.74;100.00
5284;BME280;15377;48.540;9.268;2022-12-18T00:03:59;98527.38;;;-9.84;100.00
5284;BME280;15377;48.540;9.268;2022-12-18T00:06:27;98529.41;;;-9.81;100.00
5284;BME280;15377;48.540;9.268;2022-12-18T00:08:54;98521.28;;;-10.10;100.00
5284;BME280;15377;48.540;9.268;2022-12-18T00:11:22;98527.31;;;-10.35;100.00
5284;BME280;15377;48.540;9.268;2022-12-18T00:13:49;98533.16;;;-10.16;100.00
5284;BME280;15377;48.540;9.268;2022-12-18T00:16:20;98536.59;;;-10.16;100.00
5284;BME280;15377;48.540;9.268;2022-12-18T00:18:47;98537.44;;;-10.07;100.00
5284;BME280;15377;48.540;9.268;2022-12-18T00:21:13;98532.69;;;-10.18;100.00
5284;BME280;15377;48.540;9.268;2022-12-18T00:23:40;98545.50;;;-10.20;100.00
5284;BME280;15377;48.540;9.268;2022-12-18T00:26:11;98531.44;;;-10.12;100.00
5284;BME280;15377;48.540;9.268;2022-12-18T00:28:40;98523.47;;;-10.20;100.00
5284;BME280;15377;48.540;9.268;2022-12-18T00:31:11;98526.41;;;-10.22;100.00
5284;BME280;15377;48.540;9.268;2022-12-18T00:33:38;98534.59;;;-10.10;100.00
5284;BME280;15377;48.540;9.268;2022-12-18T00:36:05;98538.03;;;-10.18;100.00
5284;BME280;15377;48.540;9.268;2022-12-18T00:38:32;98539.22;;;-10.41;100.00
5284;BME280;15377;48.540;9.268;2022-12-18T00:40:57;98533.81;;;-10.58;100.00
5284;BME280;15377;48.540;9.268;2022-12-18T00:43:23;98533.09;;;-10.89;100.00
5284;BME280;15377;48.540;9.268;2022-12-18T00:45:48;98550.25;;;-10.95;100.00
5284;BME280;15377;48.540;9.268;2022-12-18T00:48:14;98547.97;;;-11.10;100.00
5284;BME280;15377;48.540;9.268;2022-12-18T00:50:39;98543.28;;;-11.13;100.00
5284;BME280;15377;48.540;9.268;2022-12-18T00:53:05;98552.31;;;-11.14;100.00
5284;BME280;15377;48.540;9.268;2022-12-18T00:55:30;98542.31;;;-11.17;100.00
5284;BME280;15377;48.540;9.268;2022-12-18T00:57:55;98529.63;;;-11.20;100.00
5284;BME280;15377;48.540;9.268;2022-12-18T01:00:21;98533.59;;;-11.09;100.00
5284;BME280;15377;48.540;9.268;2022-12-18T01:02:47;98532.22;;;-11.28;100.00
5284;BME280;15377;48.540;9.268;2022-12-18T01:05:13;98541.75;;;-11.58;100.00
5284;BME280;15377;48.540;9.268;2022-12-18T01:07:38;98542.94;;;-11.64;100.00
5284;BME280;15377;48.540;9.268;2022-12-18T01:10:04;98545.19;;;-11.79;100.00
5284;BME280;15377;48.540;9.268;2022-12-18T01:12:30;98541.84;;;-11.85;100.00
5284;BME280;15377;48.540;9.268;2022-12-18T01:14:56;98528.91;;;-12.00;100.00
5284;BME280;15377;48.540;9.268;2022-12-18T01:17:21;98548.59;;;-11.79;100.00
5284;BME280;15377;48.540;9.268;2022-12-18T01:19:47;98549.63;;;-11.66;100.00
5284;BME280;15377;48.540;9.268;2022-12-18T01:22:12;98545.72;;;-11.69;100.00
5284;BME280;15377;48.540;9.268;2022-12-18T01:24:38;98555.22;;;-11.90;100.00
5284;BME280;15377;48.540;9.268;2022-12-18T01:27:03;98556.75;;;-12.11;100.00
5284;BME280;15377;48.540;9.268;2022-12-18T01:29:28;98565.41;;;-12.32;100.00
5284;BME280;15377;48.540;9.268;2022-12-18T01:31:57;98558.66;;;-12.52;100.00
5284;BME280;15377;48.540;9.268;2022-12-18T01:34:23;98560.00;;;-12.41;100.00
5284;BME280;15377;48.540;9.268;2022-12-18T01:36:49;98562.25;;;-12.48;100.00
5284;BME280;15377;48.540;9.268;2022-12-18T01:39:17;98556.50;;;-12.63;100.00
5284;BME280;15377;48.540;9.268;2022-12-18T01:41:43;98552.56;;;-12.66;100.00
5284;BME280;15377;48.540;9.268;2022-12-18T01:47:20;98558.63;;;-12.11;100.00
5284;BME280;15377;48.540;9.268;2022-12-18T01:49:47;98560.97;;;-12.23;100.00
5284;BME280;15377;48.540;9.268;2022-12-18T01:52:15;98559.34;;;-12.46;100.00
5284;BME280;15377;48.540;9.268;2022-12-18T01:54:41;98558.84;;;-12.48;100.00
5284;BME280;15377;48.540;9.268;2022-12-18T01:57:07;98567.19;;;-12.55;100.00
5284;BME280;15377;48.540;9.268;2022-12-18T01:59:33;98561.69;;;-12.45;100.00
5284;BME280;15377;48.540;9.268;2022-12-18T02:01:59;98562.56;;;-12.36;100.00
5284;BME280;15377;48.540;9.268;2022-12-18T02:04:27;98557.66;;;-12.29;100.00
5284;BME280;15377;48.540;9.268;2022-12-18T02:07:01;98548.81;;;-12.24;100.00
5284;BME280;15377;48.540;9.268;2022-12-18T02:09:34;98544.88;;;-12.27;100.00
5284;BME280;15377;48.540;9.268;2022-12-18T02:15:00;98556.56;;;-12.55;100.00
5284;BME280;15377;48.540;9.268;2022-12-18T02:17:46;98559.25;;;-12.95;100.00
5284;BME280;15377;48.540;9.268;2022-12-18T02:20:21;98572.56;;;-13.00;100.00
5284;BME280;15377;48.540;9.268;2022-12-18T02:23:09;98576.28;;;-12.88;100.00
5284;BME280;15377;48.540;9.268;2022-12-18T02:28:28;98552.75;;;-12.49;100.00
5284;BME280;15377;48.540;9.268;2022-12-18T02:30:57;98564.63;;;-12.46;100.00
5284;BME280;15377;48.540;9.268;2022-12-18T02:33:25;98571.91;;;-12.52;100.00
5284;BME280;15377;48.540;9.268;2022-12-18T02:35:53;98559.81;;;-12.58;100.00
5284;BME280;15377;48.540;9.268;2022-12-18T02:38:20;98565.31;;;-12.68;100.00
5284;BME280;15377;48.540;9.268;2022-12-18T02:40:46;98572.78;;;-12.70;100.00
5284;BME280;15377;48.540;9.268;2022-12-18T02:43:15;98567.47;;;-12.83;100.00
5284;BME280;15377;48.540;9.268;2022-12-18T02:45:58;98575.91;;;-12.81;100.00
5284;BME280;15377;48.540;9.268;2022-12-18T02:48:27;98589.94;;;-12.81;100.00
5284;BME280;15377;48.540;9.268;2022-12-18T02:51:03;98576.81;;;-12.86;100.00
5284;BME280;15377;48.540;9.268;2022-12-18T02:53:53;98598.16;;;-12.82;100.00
5284;BME280;15377;48.540;9.268;2022-12-18T02:56:26;98602.09;;;-12.80;100.00
5284;BME280;15377;48.540;9.268;2022-12-18T03:01:42;98595.66;;;-12.60;100.00
5284;BME280;15377;48.540;9.268;2022-12-18T03:04:22;98608.81;;;-12.42;100.00
5284;BME280;15377;48.540;9.268;2022-12-18T03:06:54;98603.31;;;-12.45;100.00
5284;BME280;15377;48.540;9.268;2022-12-18T03:09:27;98589.47;;;-12.56;100.00
5284;BME280;15377;48.540;9.268;2022-12-18T03:12:01;98582.41;;;-12.47;100.00
5284;BME280;15377;48.540;9.268;2022-12-18T03:14:59;98578.28;;;-12.26;100.00
5284;BME280;15377;48.540;9.268;2022-12-18T03:17:30;98575.31;;;-12.65;100.00
5284;BME280;15377;48.540;9.268;2022-12-18T03:19:58;98583.34;;;-12.83;100.00
5284;BME280;15377;48.540;9.268;2022-12-18T03:22:27;98574.91;;;-13.12;100.00
5284;BME280;15377;48.540;9.268;2022-12-18T03:24:56;98580.91;;;-13.07;100.00
5284;BME280;15377;48.540;9.268;2022-12-18T03:27:24;98589.59;;;-13.20;100.00
5284;BME280;15377;48.540;9.268;2022-12-18T03:30:09;98604.13;;;-13.17;100.00
5284;BME280;15377;48.540;9.268;2022-12-18T03:32:44;98598.03;;;-13.18;100.00
5284;BME280;15377;48.540;9.268;2022-12-18T03:35:33;98594.22;;;-13.12;100.00
5284;BME280;15377;48.540;9.268;2022-12-18T03:38:01;98591.22;;;-13.05;100.00
5284;BME280;15377;48.540;9.268;2022-12-18T03:40:35;98593.47;;;-12.85;100.00
5284;BME280;15377;48.540;9.268;2022-12-18T03:43:10;98598.88;;;-12.77;100.00
5284;BME280;15377;48.540;9.268;2022-12-18T03:45:42;98600.16;;;-12.74;100.00
5284;BME280;15377;48.540;9.268;2022-12-18T03:48:14;98600.34;;;-12.71;100.00
5284;BME280;15377;48.540;9.268;2022-12-18T03:50:54;98595.72;;;-12.79;100.00
5284;BME280;15377;48.540;9.268;2022-12-18T03:56:14;98600.66;;;-12.72;100.00
5284;BME280;15377;48.540;9.268;2022-12-18T03:58:42;98599.97;;;-12.78;100.00
5284;BME280;15377;48.540;9.268;2022-12-18T04:01:12;98594.56;;;-12.73;100.00
5284;BME280;15377;48.540;9.268;2022-12-18T04:03:39;98604.06;;;-12.72;100.00
5284;BME280;15377;48.540;9.268;2022-12-18T04:06:05;98598.09;;;-12.64;100.00
5284;BME280;15377;48.540;9.268;2022-12-18T04:08:32;98601.44;;;-12.18;100.00
5284;BME280;15377;48.540;9.268;2022-12-18T04:11:00;98587.44;;;-11.83;100.00
5284;BME280;15377;48.540;9.268;2022-12-18T04:13:32;98594.22;;;-11.55;100.00
5284;BME280;15377;48.540;9.268;2022-12-18T04:15:58;98594.47;;;-11.43;100.00
5284;BME280;15377;48.540;9.268;2022-12-18T04:18:23;98595.91;;;-11.37;100.00
5284;BME280;15377;48.540;9.268;2022-12-18T04:20:48;98596.22;;;-11.60;100.00
5284;BME280;15377;48.540;9.268;2022-12-18T04:23:14;98588.34;;;-11.87;100.00
5284;BME280;15377;48.540;9.268;2022-12-18T04:25:39;98593.19;;;-12.03;100.00
5284;BME280;15377;48.540;9.268;2022-12-18T04:28:05;98593.00;;;-12.20;100.00
5284;BME280;15377;48.540;9.268;2022-12-18T04:30:30;98588.47;;;-12.06;100.00
5284;BME280;15377;48.540;9.268;2022-12-18T04:32:55;98594.97;;;-12.12;100.00
5284;BME280;15377;48.540;9.268;2022-12-18T04:35:21;98596.25;;;-12.09;100.00
5284;BME280;15377;48.540;9.268;2022-12-18T04:37:46;98589.28;;;-12.19;100.00
5284;BME280;15377;48.540;9.268;2022-12-18T04:40:12;98601.94;;;-12.29;100.00
5284;BME280;15377;48.540;9.268;2022-12-18T04:42:39;98574.84;;;-12.67;100.00
5284;BME280;15377;48.540;9.268;2022-12-18T04:45:05;98607.53;;;-12.44;100.00
5284;BME280;15377;48.540;9.268;2022-12-18T04:47:31;98615.41;;;-12.53;100.00
5284;BME280;15377;48.540;9.268;2022-12-18T04:49:56;98605.75;;;-12.62;100.00
5284;BME280;15377;48.540;9.268;2022-12-18T04:52:22;98610.88;;;-12.66;100.00
5284;BME280;15377;48.540;9.268;2022-12-18T04:54:47;98582.22;;;-12.50;100.00
5284;BME280;15377;48.540;9.268;2022-12-18T04:57:13;98603.59;;;-12.47;100.00
5284;BME280;15377;48.540;9.268;2022-12-18T04:59:38;98590.66;;;-12.35;100.00
5284;BME280;15377;48.540;9.268;2022-12-18T05:02:04;98583.69;;;-12.17;100.00
5284;BME280;15377;48.540;9.268;2022-12-18T05:04:29;98568.44;;;-12.12;100.00
5284;BME280;15377;48.540;9.268;2022-12-18T05:06:54;98569.91;;;-12.06;100.00
5284;BME280;15377;48.540;9.268;2022-12-18T05:09:20;98571.13;;;-12.25;100.00
5284;BME280;15377;48.540;9.268;2022-12-18T05:11:45;98581.44;;;-12.51;100.00
5284;BME280;15377;48.540;9.268;2022-12-18T05:14:12;98571.22;;;-12.57;100.00
5284;BME280;15377;48.540;9.268;2022-12-18T05:16:37;98566.50;;;-12.74;100.00
5284;BME280;15377;48.540;9.268;2022-12-18T05:19:02;98572.94;;;-12.80;100.00
5284;BME280;15377;48.540;9.268;2022-12-18T05:21:28;98569.72;;;-13.04;100.00
5284;BME280;15377;48.540;9.268;2022-12-18T05:23:53;98578.03;;;-13.10;100.00
5284;BME280;15377;48.540;9.268;2022-12-18T05:26:19;98578.44;;;-13.17;100.00
5284;BME280;15377;48.540;9.268;2022-12-18T05:28:44;98572.94;;;-13.07;100.00
5284;BME280;15377;48.540;9.268;2022-12-18T05:31:11;98577.25;;;-13.11;100.00
5284;BME280;15377;48.540;9.268;2022-12-18T05:33:37;98582.97;;;-13.04;100.00
5284;BME280;15377;48.540;9.268;2022-12-18T05:36:04;98589.47;;;-12.96;100.00
5284;BME280;15377;48.540;9.268;2022-12-18T05:38:31;98579.03;;;-13.06;100.00
5284;BME280;15377;48.540;9.268;2022-12-18T05:40:57;98593.97;;;-13.29;100.00
5284;BME280;15377;48.540;9.268;2022-12-18T05:43:24;98573.47;;;-13.37;100.00
5284;BME280;15377;48.540;9.268;2022-12-18T05:45:52;98597.22;;;-13.32;100.00
5284;BME280;15377;48.540;9.268;2022-12-18T05:48:17;98605.63;;;-13.30;100.00
5284;BME280;15377;48.540;9.268;2022-12-18T05:50:44;98595.06;;;-13.30;100.00
5284;BME280;15377;48.540;9.268;2022-12-18T05:53:11;98598.53;;;-13.16;100.00
5284;BME280;15377;48.540;9.268;2022-12-18T05:55:38;98600.19;;;-13.20;100.00
5284;BME280;15377;48.540;9.268;2022-12-18T05:58:04;98603.22;;;-13.44;100.00
5284;BME280;15377;48.540;9.268;2022-12-18T06:00:31;98599.88;;;-13.50;100.00
5284;BME280;15377;48.540;9.268;2022-12-18T06:02:57;98600.59;;;-13.44;100.00
5284;BME280;15377;48.540;9.268;2022-12-18T06:05:24;98605.88;;;-13.44;100.00
5284;BME280;15377;48.540;9.268;2022-12-18T06:07:49;98591.50;;;-13.57;100.00
5284;BME280;15377;48.540;9.268;2022-12-18T06:10:14;98577.34;;;-13.47;100.00
5284;BME280;15377;48.540;9.268;2022-12-18T06:12:40;98595.09;;;-13.66;100.00
5284;BME280;15377;48.540;9.268;2022-12-18T06:15:06;98582.72;;;-14.08;100.00
5284;BME280;15377;48.540;9.268;2022-12-18T06:17:34;98583.81;;;-14.27;100.00
5284;BME280;15377;48.540;9.268;2022-12-18T06:19:59;98583.00;;;-14.28;100.00
5284;BME280;15377;48.540;9.268;2022-12-18T06:22:25;98591.06;;;-14.38;100.00
5284;BME280;15377;48.540;9.268;2022-12-18T06:24:50;98590.22;;;-14.33;100.00
5284;BME280;15377;48.540;9.268;2022-12-18T06:27:16;98602.38;;;-14.32;100.00
5284;BME280;15377;48.540;9.268;2022-12-18T06:29:41;98602.94;;;-14.35;100.00
5284;BME280;15377;48.540;9.268;2022-12-18T06:32:07;98592.97;;;-14.43;100.00
5284;BME280;15377;48.540;9.268;2022-12-18T06:34:33;98607.03;;;-14.24;100.00
5284;BME280;15377;48.540;9.268;2022-12-18T06:36:58;98598.66;;;-14.31;100.00
5284;BME280;15377;48.540;9.268;2022-12-18T06:39:24;98605.06;;;-14.37;100.00
5284;BME280;15377;48.540;9.268;2022-12-18T06:41:49;98630.53;;;-14.04;100.00
5284;BME280;15377;48.540;9.268;2022-12-18T06:44:15;98629.09;;;-14.15;100.00
5284;BME280;15377;48.540;9.268;2022-12-18T06:46:40;98634.75;;;-13.85;100.00
5284;BME280;15377;48.540;9.268;2022-12-18T06:49:06;98638.25;;;-13.89;100.00
5284;BME280;15377;48.540;9.268;2022-12-18T06:51:31;98637.66;;;-14.23;100.00
5284;BME280;15377;48.540;9.268;2022-12-18T06:53:57;98654.66;;;-14.29;100.00
5284;BME280;15377;48.540;9.268;2022-12-18T06:56:22;98652.63;;;-14.37;100.00
5284;BME280;15377;48.540;9.268;2022-12-18T06:58:51;98638.06;;;-14.58;100.00
5284;BME280;15377;48.540;9.268;2022-12-18T07:01:16;98657.56;;;-14.54;100.00
5284;BME280;15377;48.540;9.268;2022-12-18T07:03:42;98650.34;;;-14.44;100.00
5284;BME280;15377;48.540;9.268;2022-12-18T07:06:15;98660.06;;;-14.39;100.00
5284;BME280;15377;48.540;9.268;2022-12-18T07:08:41;98647.91;;;-14.40;100.00
5284;BME280;15377;48.540;9.268;2022-12-18T07:11:06;98643.59;;;-14.31;100.00
5284;BME280;15377;48.540;9.268;2022-12-18T07:13:32;98642.91;;;-14.42;100.00
5284;BME280;15377;48.540;9.268;2022-12-18T07:16:08;98646.72;;;-14.29;100.00
5284;BME280;15377;48.540;9.268;2022-12-18T07:18:34;98642.47;;;-14.25;100.00
5284;BME280;15377;48.540;9.268;2022-12-18T07:21:11;98648.06;;;-14.32;100.00
5284;BME280;15377;48.540;9.268;2022-12-18T07:23:37;98656.75;;;-14.26;100.00
5284;BME280;15377;48.540;9.268;2022-12-18T07:26:04;98667.94;;;-14.34;100.00
5284;BME280;15377;48.540;9.268;2022-12-18T07:28:31;98640.16;;;-14.55;100.00
5284;BME280;15377;48.540;9.268;2022-12-18T07:30:56;98671.34;;;-14.34;100.00
5284;BME280;15377;48.540;9.268;2022-12-18T07:33:22;98671.47;;;-14.20;100.00
5284;BME280;15377;48.540;9.268;2022-12-18T07:35:47;98677.28;;;-14.18;100.00
5284;BME280;15377;48.540;9.268;2022-12-18T07:38:12;98682.41;;;-14.08;100.00
5284;BME280;15377;48.540;9.268;2022-12-18T07:40:38;98660.81;;;-14.15;100.00
5284;BME280;15377;48.540;9.268;2022-12-18T07:43:03;98668.41;;;-14.27;100.00
5284;BME280;15377;48.540;9.268;2022-12-18T07:45:31;98661.25;;;-14.27;100.00
5284;BME280;15377;48.540;9.268;2022-12-18T07:47:57;98674.69;;;-14.23;100.00
5284;BME280;15377;48.540;9.268;2022-12-18T07:50:22;98669.88;;;-14.21;100.00
5284;BME280;15377;48.540;9.268;2022-12-18T07:52:49;98669.69;;;-14.06;100.00
5284;BME280;15377;48.540;9.268;2022-12-18T07:55:14;98663.28;;;-14.00;100.00
5284;BME280;15377;48.540;9.268;2022-12-18T07:57:40;98666.84;;;-13.91;100.00
5284;BME280;15377;48.540;9.268;2022-12-18T08:00:05;98664.16;;;-13.86;100.00
5284;BME280;15377;48.540;9.268;2022-12-18T08:02:31;98667.09;;;-13.69;100.00
5284;BME280;15377;48.540;9.268;2022-12-18T08:04:57;98681.50;;;-13.57;100.00
5284;BME280;15377;48.540;9.268;2022-12-18T08:07:23;98671.19;;;-13.58;100.00
5284;BME280;15377;48.540;9.268;2022-12-18T08:09:48;98683.66;;;-13.40;100.00
5284;BME280;15377;48.540;9.268;2022-12-18T08:12:13;98673.47;;;-13.34;100.00
5284;BME280;15377;48.540;9.268;2022-12-18T08:14:39;98682.63;;;-13.26;100.00
5284;BME280;15377;48.540;9.268;2022-12-18T08:17:04;98684.47;;;-13.27;100.00
5284;BME280;15377;48.540;9.268;2022-12-18T08:19:30;98674.69;;;-13.44;100.00
5284;BME280;15377;48.540;9.268;2022-12-18T08:21:55;98690.22;;;-13.56;100.00
5284;BME280;15377;48.540;9.268;2022-12-18T08:24:20;98690.63;;;-13.49;100.00
5284;BME280;15377;48.540;9.268;2022-12-18T08:26:46;98684.56;;;-13.32;100.00
5284;BME280;15377;48.540;9.268;2022-12-18T08:29:11;98689.97;;;-13.05;100.00
5284;BME280;15377;48.540;9.268;2022-12-18T08:31:37;98686.19;;;-12.99;100.00
5284;BME280;15377;48.540;9.268;2022-12-18T08:34:02;98682.25;;;-12.88;100.00
5284;BME280;15377;48.540;9.268;2022-12-18T08:36:27;98681.69;;;-12.85;100.00
5284;BME280;15377;48.540;9.268;2022-12-18T08:38:53;98682.03;;;-12.59;100.00
5284;BME280;15377;48.540;9.268;2022-12-18T08:41:18;98668.31;;;-12.48;100.00
5284;BME280;15377;48.540;9.268;2022-12-18T08:43:44;98673.75;;;-12.26;100.00
5284;BME280;15377;48.540;9.268;2022-12-18T08:46:34;98672.69;;;-11.98;100.00
5284;BME280;15377;48.540;9.268;2022-12-18T08:48:59;98672.56;;;-11.93;100.00
5284;BME280;15377;48.540;9.268;2022-12-18T08:51:25;98672.38;;;-11.83;100.00
5284;BME280;15377;48.540;9.268;2022-12-18T08:53:50;98677.09;;;-11.80;100.00
5284;BME280;15377;48.540;9.268;2022-12-18T08:56:15;98679.44;;;-11.65;100.00
5284;BME280;15377;48.540;9.268;2022-12-18T08:58:41;98687.78;;;-11.58;100.00
5284;BME280;15377;48.540;9.268;2022-12-18T09:01:09;98683.06;;;-11.39;100.00
5284;BME280;15377;48.540;9.268;2022-12-18T09:03:35;98653.94;;;-11.30;100.00
5284;BME280;15377;48.540;9.268;2022-12-18T09:06:00;98670.56;;;-11.03;100.00
5284;BME280;15377;48.540;9.268;2022-12-18T09:08:26;98657.88;;;-10.84;100.00
5284;BME280;15377;48.540;9.268;2022-12-18T09:10:52;98655.31;;;-10.67;100.00
5284;BME280;15377;48.540;9.268;2022-12-18T09:13:18;98663.41;;;-10.50;100.00
5284;BME280;15377;48.540;9.268;2022-12-18T09:15:48;98651.75;;;-10.32;100.00
5284;BME280;15377;48.540;9.268;2022-12-18T09:18:15;98647.78;;;-10.13;100.00
5284;BME280;15377;48.540;9.268;2022-12-18T09:20:41;98648.91;;;-9.88;100.00
5284;BME280;15377;48.540;9.268;2022-12-18T09:23:08;98657.78;;;-9.28;100.00
5284;BME280;15377;48.540;9.268;2022-12-18T09:25:34;98659.69;;;-7.94;100.00
5284;BME280;15377;48.540;9.268;2022-12-18T09:28:02;98641.16;;;-6.36;100.00
5284;BME280;15377;48.540;9.268;2022-12-18T09:30:27;98651.97;;;-4.85;100.00
5284;BME280;15377;48.540;9.268;2022-12-18T09:32:55;98643.28;;;-3.46;100.00
5284;BME280;15377;48.540;9.268;2022-12-18T09:35:21;98637.56;;;-2.91;100.00
5284;BME280;15377;48.540;9.268;2022-12-18T09:37:47;98657.41;;;-2.23;100.00
5284;BME280;15377;48.540;9.268;2022-12-18T09:40:18;98649.97;;;-2.07;100.00
5284;BME280;15377;48.540;9.268;2022-12-18T09:42:47;98641.25;;;-2.61;100.00
5284;BME280;15377;48.540;9.268;2022-12-18T09:45:16;98640.50;;;-3.50;100.00
5284;BME280;15377;48.540;9.268;2022-12-18T09:47:43;98648.78;;;-4.04;100.00
5284;BME280;15377;48.540;9.268;2022-12-18T09:50:30;98658.56;;;-4.55;100.00
5284;BME280;15377;48.540;9.268;2022-12-18T09:52:59;98656.28;;;-5.08;100.00
5284;BME280;15377;48.540;9.268;2022-12-18T09:55:37;98661.97;;;-5.37;100.00
5284;BME280;15377;48.540;9.268;2022-12-18T09:58:13;98640.78;;;-6.02;100.00
5284;BME280;15377;48.540;9.268;2022-12-18T10:00:43;98649.53;;;-6.37;100.00
5284;BME280;15377;48.540;9.268;2022-12-18T10:03:11;98636.59;;;-6.80;100.00
5284;BME280;15377;48.540;9.268;2022-12-18T10:05:46;98627.06;;;-6.89;100.00
5284;BME280;15377;48.540;9.268;2022-12-18T10:11:09;98634.75;;;-7.08;100.00
5284;BME280;15377;48.540;9.268;2022-12-18T10:16:14;98637.13;;;-7.06;100.00
5284;BME280;15377;48.540;9.268;2022-12-18T10:21:21;98637.00;;;-7.10;100.00
5284;BME280;15377;48.540;9.268;2022-12-18T10:24:44;98623.28;;;-7.08;100.00
5284;BME280;15377;48.540;9.268;2022-12-18T10:26:52;98635.38;;;-7.02;100.00
5284;BME280;15377;48.540;9.268;2022-12-18T10:29:18;98638.50;;;-7.00;100.00
5284;BME280;15377;48.540;9.268;2022-12-18T10:31:44;98631.97;;;-7.11;100.00
5284;BME280;15377;48.540;9.268;2022-12-18T10:34:10;98633.34;;;-7.05;100.00
5284;BME280;15377;48.540;9.268;2022-12-18T10:36:36;98640.50;;;-6.97;100.00
5284;BME280;15377;48.540;9.268;2022-12-18T10:39:23;98631.44;;;-6.85;100.00
5284;BME280;15377;48.540;9.268;2022-12-18T10:41:50;98635.38;;;-6.70;100.00
5284;BME280;15377;48.540;9.268;2022-12-18T10:44:20;98616.13;;;-6.64;100.00
5284;BME280;15377;48.540;9.268;2022-12-18T10:46:49;98624.41;;;-6.57;100.00
5284;BME280;15377;48.540;9.268;2022-12-18T10:49:32;98628.41;;;-6.51;100.00
5284;BME280;15377;48.540;9.268;2022-12-18T10:52:17;98636.78;;;-6.40;100.00
5284;BME280;15377;48.540;9.268;2022-12-18T10:54:49;98628.03;;;-6.17;100.00
5284;BME280;15377;48.540;9.268;2022-12-18T10:57:38;98630.25;;;-5.95;100.00
5284;BME280;15377;48.540;9.268;2022-12-18T11:00:28;98637.66;;;-5.80;100.00
5284;BME280;15377;48.540;9.268;2022-12-18T11:02:54;98635.31;;;-5.81;100.00
5284;BME280;15377;48.540;9.268;2022-12-18T11:05:28;98637.19;;;-5.70;100.00
5284;BME280;15377;48.540;9.268;2022-12-18T11:07:54;98629.22;;;-5.54;100.00
5284;BME280;15377;48.540;9.268;2022-12-18T11:10:44;98626.22;;;-5.53;100.00
5284;BME280;15377;48.540;9.268;2022-12-18T11:13:25;98620.38;;;-5.43;100.00
5284;BME280;15377;48.540;9.268;2022-12-18T11:15:51;98615.72;;;-5.46;100.00
5284;BME280;15377;48.540;9.268;2022-12-18T11:18:29;98625.59;;;-5.22;100.00
5284;BME280;15377;48.540;9.268;2022-12-18T11:20:58;98619.41;;;-5.11;100.00
5284;BME280;15377;48.540;9.268;2022-12-18T11:23:24;98596.97;;;-5.18;100.00
5284;BME280;15377;48.540;9.268;2022-12-18T11:25:59;98601.53;;;-5.07;100.00
5284;BME280;15377;48.540;9.268;2022-12-18T11:28:37;98587.28;;;-5.35;100.00
5284;BME280;15377;48.540;9.268;2022-12-18T11:31:11;98589.91;;;-5.11;100.00
5284;BME280;15377;48.540;9.268;2022-12-18T11:33:40;98587.66;;;-5.09;100.00
5284;BME280;15377;48.540;9.268;2022-12-18T11:36:09;98575.34;;;-5.10;100.00
5284;BME280;15377;48.540;9.268;2022-12-18T11:38:37;98587.50;;;-5.00;100.00
5284;BME280;15377;48.540;9.268;2022-12-18T11:43:59;98583.38;;;-4.98;100.00
5284;BME280;15377;48.540;9.268;2022-12-18T11:46:45;98569.69;;;-4.93;100.00
5284;BME280;15377;48.540;9.268;2022-12-18T11:49:18;98558.94;;;-4.93;100.00
5284;BME280;15377;48.540;9.268;2022-12-18T12:04:20;98583.97;;;-4.61;100.00
5284;BME280;15377;48.540;9.268;2022-12-18T12:12:39;98547.00;;;-4.37;100.00
5284;BME280;15377;48.540;9.268;2022-12-18T12:15:32;98551.88;;;-4.27;100.00
5284;BME280;15377;48.540;9.268;2022-12-18T12:29:20;98541.84;;;-3.80;100.00
5284;BME280;15377;48.540;9.268;2022-12-18T12:39:33;98540.06;;;-3.57;100.00
5284;BME280;15377;48.540;9.268;2022-12-18T12:42:02;98542.19;;;-3.47;100.00
5284;BME280;15377;48.540;9.268;2022-12-18T12:44:51;98541.19;;;-3.39;100.00
5284;BME280;15377;48.540;9.268;2022-12-18T12:47:23;98537.50;;;-3.50;100.00
5284;BME280;15377;48.540;9.268;2022-12-18T12:49:51;98542.56;;;-3.30;100.00
5284;BME280;15377;48.540;9.268;2022-12-18T12:52:40;98543.19;;;-3.17;100.00
5284;BME280;15377;48.540;9.268;2022-12-18T12:55:14;98539.22;;;-3.23;100.00
5284;BME280;15377;48.540;9.268;2022-12-18T12:57:51;98534.56;;;-3.26;100.00
5284;BME280;15377;48.540;9.268;2022-12-18T13:00:20;98563.03;;;-3.25;100.00
5284;BME280;15377;48.540;9.268;2022-12-18T13:03:08;98561.47;;;-3.26;100.00
5284;BME280;15377;48.540;9.268;2022-12-18T13:08:25;98561.47;;;-3.26;100.00
5284;BME280;15377;48.540;9.268;2022-12-18T13:10:53;98560.47;;;-3.18;100.00
5284;BME280;15377;48.540;9.268;2022-12-18T13:13:49;98558.91;;;-3.00;100.00
5284;BME280;15377;48.540;9.268;2022-12-18T13:16:18;98559.88;;;-2.89;100.00
5284;BME280;15377;48.540;9.268;2022-12-18T13:19:18;98557.75;;;-2.80;100.00
5284;BME280;15377;48.540;9.268;2022-12-18T13:21:55;98565.56;;;-2.75;100.00
5284;BME280;15377;48.540;9.268;2022-12-18T13:24:26;98573.34;;;-2.70;100.00
5284;BME280;15377;48.540;9.268;2022-12-18T13:26:54;98575.34;;;-2.86;100.00
5284;BME280;15377;48.540;9.268;2022-12-18T13:29:55;98569.19;;;-2.87;100.00
5284;BME280;15377;48.540;9.268;2022-12-18T13:32:23;98580.81;;;-2.83;100.00
5284;BME280;15377;48.540;9.268;2022-12-18T13:37:54;98566.50;;;-2.64;100.00
5284;BME280;15377;48.540;9.268;2022-12-18T13:48:26;98546.41;;;-2.70;100.00
5284;BME280;15377;48.540;9.268;2022-12-18T13:51:04;98556.06;;;-2.69;100.00
5284;BME280;15377;48.540;9.268;2022-12-18T13:53:35;98546.41;;;-2.70;100.00
5284;BME280;15377;48.540;9.268;2022-12-18T13:56:03;98554.91;;;-2.68;100.00
5284;BME280;15377;48.540;9.268;2022-12-18T13:58:29;98547.75;;;-2.80;100.00
5284;BME280;15377;48.540;9.268;2022-12-18T14:00:54;98561.66;;;-2.78;100.00
5284;BME280;15377;48.540;9.268;2022-12-18T14:03:25;98565.00;;;-2.84;100.00
5284;BME280;15377;48.540;9.268;2022-12-18T14:05:58;98557.44;;;-2.98;100.00
5284;BME280;15377;48.540;9.268;2022-12-18T14:08:29;98551.81;;;-3.08;100.00
5284;BME280;15377;48.540;9.268;2022-12-18T14:10:56;98554.78;;;-3.13;100.00
5284;BME280;15377;48.540;9.268;2022-12-18T14:13:27;98559.34;;;-3.17;100.00
5284;BME280;15377;48.540;9.268;2022-12-18T14:16:20;98565.25;;;-3.27;100.00
5284;BME280;15377;48.540;9.268;2022-12-18T14:18:57;98554.22;;;-3.41;100.00
5284;BME280;15377;48.540;9.268;2022-12-18T14:21:26;98563.44;;;-3.42;100.00